Time;durP1;ratioP1;P1;durP2;ratioP2;P2;SDS_P1;SDS_P2;PMS_P1;PMS_P2;Temp;Humidity;BMP_temperature;BMP_pressure;BME280_temperature;BME280_humidity;BME280_pressure;Samples;Min_cycle;Max_cycle;Signal;HPM_P1;HPM_P2
2023/09/05 00:01:37;;;;;;;12.80;8.50;;;;;;;16.70;96.40;97934.34;10326787;28;20018;-52
2023/09/05 00:06:36;;;;;;;;;;;;;;;16.58;96.73;97937.22;10326337;28;20116;-53
2023/09/05 00:11:35;;;;;;;12.73;8.55;;;;;;;16.66;96.83;97930.06;10326075;28;19952;-52
2023/09/05 00:16:34;;;;;;;11.40;7.88;;;;;;;16.72;96.90;97938.66;10324986;28;20120;-53
2023/09/05 00:21:33;;;;;;;11.23;7.57;;;;;;;16.58;97.06;97917.13;10324452;28;20139;-52
2023/09/05 00:26:32;;;;;;;10.82;6.75;;;;;;;16.54;96.51;97927.75;10315497;28;20553;-52
2023/09/05 00:31:32;;;;;;;9.95;7.22;;;;;;;16.57;97.12;97923.28;10318420;28;20132;-52
2023/09/05 00:36:31;;;;;;;11.18;6.70;;;;;;;16.65;97.06;97913.50;10322846;28;20082;-51
2023/09/05 00:41:30;;;;;;;10.50;7.05;;;;;;;16.66;96.87;97919.59;10324945;28;20031;-52
2023/09/05 00:46:30;;;;;;;;;;;;;;;16.71;96.85;97917.72;10323562;28;20071;-51
2023/09/05 00:51:33;;;;;;;10.33;6.63;;;;;;;16.22;96.16;97830.63;10322226;28;20008;-51
2023/09/05 00:56:35;;;;;;;11.45;8.10;;;;;;;16.54;96.68;97901.53;10321864;28;20318;-51
2023/09/05 01:01:34;;;;;;;12.20;8.23;;;;;;;16.53;96.77;97905.91;10321174;28;20137;-51
2023/09/05 01:06:54;;;;;;;13.25;9.52;;;;;;;16.55;96.62;97908.50;10323434;28;20073;-51
2023/09/05 01:11:55;;;;;;;14.75;12.15;;;;;;;16.39;97.39;97895.72;10323399;28;20547;-49
2023/09/05 01:17:01;;;;;;;21.77;14.65;;;;;;;15.76;98.02;97794.09;10323560;28;20474;-52
2023/09/05 01:22:28;;;;;;;24.00;15.00;;;;;;;16.26;98.77;97882.06;10323024;28;20065;-52
2023/09/05 01:27:28;;;;;;;20.33;15.10;;;;;;;16.42;98.62;97894.78;10322912;28;20878;-51
2023/09/05 01:32:27;;;;;;;21.40;17.00;;;;;;;16.07;98.39;97791.72;10322840;28;20064;-51
2023/09/05 01:37:26;;;;;;;23.13;17.13;;;;;;;16.71;97.83;97886.28;10323043;28;20056;-51
2023/09/05 01:42:25;;;;;;;;;;;;;;;16.75;97.68;97887.94;10323513;28;20052;-52
2023/09/05 01:47:23;;;;;;;23.37;17.97;;;;;;;16.75;97.41;97874.84;10322498;28;19952;-51
2023/09/05 01:52:22;;;;;;;23.70;18.80;;;;;;;16.83;97.26;97895.66;10320388;28;20025;-51
2023/09/05 01:57:21;;;;;;;;;;;;;;;16.83;97.46;97896.50;10323029;28;20125;-51
2023/09/05 02:02:20;;;;;;;19.97;17.00;;;;;;;16.77;96.65;97904.50;10320826;28;19917;-51
2023/09/05 02:07:19;;;;;;;21.60;18.83;;;;;;;16.79;96.27;97899.19;10321594;28;20045;-53
2023/09/05 02:12:18;;;;;;;23.60;19.50;;;;;;;16.67;96.54;97889.88;10321270;28;20057;-52
2023/09/05 02:17:20;;;;;;;21.77;18.77;;;;;;;16.71;96.42;97894.13;10322943;28;20037;-50
2023/09/05 02:22:19;;;;;;;24.13;20.13;;;;;;;16.69;96.16;97878.44;10321951;28;20197;-52
2023/09/05 02:27:18;;;;;;;24.55;20.45;;;;;;;16.90;95.61;97892.84;10322286;28;20678;-51
2023/09/05 02:32:17;;;;;;;25.42;20.60;;;;;;;16.87;95.32;97892.91;10321978;28;20073;-53
2023/09/05 02:37:17;;;;;;;23.48;20.55;;;;;;;16.49;95.64;97863.22;10320769;28;20132;-54
2023/09/05 02:42:16;;;;;;;24.45;20.30;;;;;;;16.70;95.68;97902.91;10321164;28;20156;-53
2023/09/05 02:47:15;;;;;;;26.80;22.42;;;;;;;16.76;94.94;97899.28;10322269;28;20068;-53
2023/09/05 02:52:14;;;;;;;23.60;21.02;;;;;;;16.59;94.86;97912.78;10319461;28;20033;-53
2023/09/05 02:57:13;;;;;;;27.13;23.20;;;;;;;16.69;95.23;97916.91;10320825;28;20080;-52
2023/09/05 03:02:12;;;;;;;27.92;23.50;;;;;;;16.52;94.84;97928.63;10327905;28;20057;-52
2023/09/05 03:07:11;;;;;;;24.70;21.98;;;;;;;16.41;95.18;97927.97;10328499;28;20778;-52
2023/09/05 03:12:10;;;;;;;28.48;23.05;;;;;;;16.54;95.25;97935.59;10328622;28;20088;-52
2023/09/05 03:17:11;;;;;;;30.20;23.55;;;;;;;16.63;94.93;97937.97;10329546;28;20518;-52
2023/09/05 03:22:10;;;;;;;27.65;24.65;;;;;;;16.54;94.85;97930.34;10328136;28;20080;-51
2023/09/05 03:27:09;;;;;;;28.83;24.55;;;;;;;16.40;94.73;97934.13;10327690;28;20029;-51
2023/09/05 03:32:07;;;;;;;;;;;;;;;16.37;94.39;97938.56;10328311;28;20128;-52
2023/09/05 03:37:06;;;;;;;28.90;23.87;;;;;;;16.42;93.92;97940.19;10327527;28;19963;-51
2023/09/05 03:42:05;;;;;;;;;;;;;;;16.44;93.36;97934.91;10326097;28;20034;-51
2023/09/05 03:47:04;;;;;;;27.97;22.93;;;;;;;16.53;92.84;97937.34;10327241;28;19919;-51
2023/09/05 03:52:04;;;;;;;26.83;23.00;;;;;;;16.44;93.07;97951.50;10321394;28;20049;-52
2023/09/05 03:57:03;;;;;;;27.13;22.38;;;;;;;16.48;93.07;97950.53;10326985;28;20080;-51
2023/09/05 04:02:02;;;;;;;28.17;24.55;;;;;;;16.52;92.01;97953.97;10326507;28;20067;-52
2023/09/05 04:07:01;;;;;;;23.45;20.70;;;;;;;16.26;91.93;97949.28;10326946;28;20025;-52
2023/09/05 04:11:59;;;;;;;;;;;;;;;16.21;92.48;97962.47;10325879;28;20028;-51
2023/09/05 04:16:58;;;;;;;27.93;21.37;;;;;;;16.41;91.84;97954.19;10323637;28;19968;-51
2023/09/05 04:21:58;;;;;;;24.60;21.85;;;;;;;16.20;91.63;97937.16;10325945;28;20026;-51
2023/09/05 04:26:58;;;;;;;25.00;21.77;;;;;;;16.49;91.18;97956.66;10324836;28;20072;-52
2023/09/05 04:31:57;;;;;;;23.20;19.30;;;;;;;16.48;90.61;97963.63;10325102;28;20072;-52
2023/09/05 04:36:56;;;;;;;23.65;21.02;;;;;;;16.58;90.06;97968.66;10325861;28;20101;-52
2023/09/05 04:41:55;;;;;;;25.40;21.05;;;;;;;16.56;90.13;97962.59;10321988;28;20036;-52
2023/09/05 04:47:19;;;;;;;24.63;20.58;;;;;;;16.64;89.17;97964.16;10317206;28;20416;-52
2023/09/05 04:52:19;;;;;;;23.80;21.02;;;;;;;16.57;88.21;97957.34;10276721;28;20129;-52
2023/09/05 04:57:18;;;;;;;23.17;20.67;;;;;;;16.41;87.97;97933.22;10311283;28;20068;-52
2023/09/05 05:02:17;;;;;;;24.08;19.95;;;;;;;16.56;87.35;97967.84;10321298;28;20129;-52
2023/09/05 05:07:16;;;;;;;23.73;19.88;;;;;;;16.58;86.64;97973.91;10323922;28;20584;-53
2023/09/05 05:12:16;;;;;;;23.63;20.08;;;;;;;16.37;86.59;97928.97;10321481;28;20496;-52
2023/09/05 05:17:15;;;;;;;22.75;19.05;;;;;;;16.69;86.50;97971.91;10320951;28;20061;-52
2023/09/05 05:22:14;;;;;;;21.45;18.88;;;;;;;16.80;85.77;97976.94;10322033;28;20124;-53
2023/09/05 05:27:12;;;;;;;22.13;19.83;;;;;;;16.66;85.84;97975.47;10322683;28;20026;-52
2023/09/05 05:32:11;;;;;;;;;;;;;;;16.68;85.65;97975.44;10321582;28;20108;-52
2023/09/05 05:37:10;;;;;;;21.73;19.47;;;;;;;16.45;86.41;97937.50;10323290;28;19913;-52
2023/09/05 05:42:10;;;;;;;19.67;17.73;;;;;;;16.57;85.44;97978.28;10323335;28;20180;-51
2023/09/05 05:47:08;;;;;;;22.00;19.38;;;;;;;16.64;85.71;97979.88;10325882;28;20114;-52
2023/09/05 05:52:10;;;;;;;19.27;17.27;;;;;;;16.71;85.27;97975.38;10326715;28;20204;-52
2023/09/05 05:57:09;;;;;;;20.45;18.25;;;;;;;16.72;85.95;97977.09;10324706;28;20076;-51
2023/09/05 06:02:08;;;;;;;19.70;15.88;;;;;;;16.41;84.76;97924.50;10325013;28;20029;-52
2023/09/05 06:07:07;;;;;;;;;;;;;;;16.69;84.96;97987.66;10326163;28;20081;-54
2023/09/05 06:12:06;;;;;;;17.57;15.63;;;;;;;16.69;83.86;97982.41;10325320;28;19913;-55
2023/09/05 06:17:05;;;;;;;18.70;16.73;;;;;;;16.79;83.86;97981.28;10325466;28;20741;-54
2023/09/05 06:22:04;;;;;;;20.17;15.77;;;;;;;16.72;83.49;97996.31;10325460;28;20413;-54
2023/09/05 06:27:03;;;;;;;16.90;14.65;;;;;;;16.95;83.15;97994.09;10324730;28;20611;-54
2023/09/05 06:32:03;;;;;;;18.83;15.40;;;;;;;16.36;82.27;97890.56;10324759;28;20060;-53
2023/09/05 06:37:02;;;;;;;23.20;16.98;;;;;;;17.07;82.39;97996.44;10340122;28;20119;-53
2023/09/05 06:42:01;;;;;;;17.52;15.65;;;;;;;17.11;81.87;97996.31;10360048;28;20041;-53
2023/09/05 06:47:00;;;;;;;18.30;16.17;;;;;;;17.17;82.20;98005.81;10351491;28;20459;-53
2023/09/05 06:52:00;;;;;;;20.63;17.13;;;;;;;17.31;81.31;98014.22;10330562;28;20408;-53
2023/09/05 06:56:59;;;;;;;17.33;15.48;;;;;;;17.44;80.71;98017.41;10327872;28;20072;-53
2023/09/05 07:01:58;;;;;;;21.60;17.00;;;;;;;17.46;80.59;98004.25;10328300;28;20032;-54
2023/09/05 07:07:01;;;;;;;17.88;15.95;;;;;;;17.45;80.44;98031.38;10328512;28;20045;-55
2023/09/05 07:12:03;;;;;;;17.98;15.32;;;;;;;17.29;80.29;97999.44;10328268;28;20074;-53
2023/09/05 07:17:06;;;;;;;18.92;14.93;;;;;;;17.48;80.16;98044.44;10328099;28;20080;-54
2023/09/05 07:22:05;;;;;;;16.33;14.63;;;;;;;17.47;80.04;98050.56;10328066;28;20065;-53
2023/09/05 07:27:04;;;;;;;15.55;13.93;;;;;;;17.49;80.24;98051.41;10327057;28;20126;-54
2023/09/05 07:32:03;;;;;;;16.17;14.32;;;;;;;17.53;79.01;98045.19;10328058;28;20053;-55
2023/09/05 07:37:03;;;;;;;15.18;13.60;;;;;;;17.97;77.70;98059.00;10326489;28;20065;-54
2023/09/05 07:42:02;;;;;;;16.70;13.27;;;;;;;18.06;75.67;98013.22;10366007;28;20075;-54
2023/09/05 07:47:01;;;;;;;18.67;12.98;;;;;;;18.31;74.07;98063.34;10335276;28;20069;-54
2023/09/05 07:52:00;;;;;;;16.00;13.48;;;;;;;18.31;74.06;98065.97;10323812;28;20017;-53
2023/09/05 07:56:59;;;;;;;14.25;12.75;;;;;;;17.81;74.45;98003.38;10326982;28;20560;-53
2023/09/05 08:01:58;;;;;;;13.20;11.65;;;;;;;18.34;74.82;98072.00;10320615;28;20993;-54
2023/09/05 08:06:58;;;;;;;13.98;12.48;;;;;;;18.64;73.88;98069.41;10319815;28;20862;-54
2023/09/05 08:11:57;;;;;;;15.48;12.00;;;;;;;18.93;72.96;98060.72;10323971;28;20069;-54
2023/09/05 08:16:56;;;;;;;20.13;15.90;;;;;;;19.02;72.52;98039.41;10323375;28;20117;-54
2023/09/05 08:21:55;;;;;;;17.00;14.80;;;;;;;19.28;72.59;98065.84;10322396;28;20128;-53
2023/09/05 08:26:54;;;;;;;18.08;11.90;;;;;;;19.24;70.74;98065.06;10323990;28;20040;-54
2023/09/05 08:31:54;;;;;;;16.23;11.68;;;;;;;19.46;70.19;98065.22;10320996;28;20509;-53
2023/09/05 08:36:53;;;;;;;14.18;11.70;;;;;;;19.49;68.85;98074.81;10322093;28;20073;-54
2023/09/05 08:41:52;;;;;;;14.02;11.75;;;;;;;19.38;68.36;98033.91;10324933;28;20161;-54
2023/09/05 08:46:52;;;;;;;14.77;11.07;;;;;;;19.61;68.30;98071.81;10327705;28;20080;-55
2023/09/05 08:51:55;;;;;;;15.52;12.00;;;;;;;19.99;66.37;98080.22;10327409;28;20065;-55
2023/09/05 08:56:55;;;;;;;13.68;9.95;;;;;;;20.34;64.65;98072.88;10327276;28;20144;-54
2023/09/05 09:01:54;;;;;;;13.00;10.25;;;;;;;20.69;63.57;98054.03;10325982;28;20132;-55
2023/09/05 09:06:55;;;;;;;12.93;10.43;;;;;;;20.96;62.45;98063.59;10326147;28;20031;-55
2023/09/05 09:12:03;;;;;;;12.88;9.20;;;;;;;20.84;61.12;98043.81;10326387;28;20069;-55
2023/09/05 09:17:07;;;;;;;11.33;9.63;;;;;;;21.12;61.46;98054.19;10326556;28;20568;-55
2023/09/05 09:22:08;;;;;;;21.50;9.88;;;;;;;21.46;60.37;98027.34;10322904;28;20148;-55
2023/09/05 09:27:08;;;;;;;11.10;9.27;;;;;;;21.41;57.97;97991.50;10322166;28;20084;-55
2023/09/05 09:32:06;;;;;;;9.52;8.27;;;;;;;21.94;57.77;98052.66;10320000;28;20164;-55
2023/09/05 09:37:06;;;;;;;9.43;8.48;;;;;;;21.82;57.05;98044.38;10314679;28;20025;-54
2023/09/05 09:42:05;;;;;;;9.18;8.27;;;;;;;21.95;56.10;98040.28;10320299;28;20104;-55
2023/09/05 09:47:04;;;;;;;10.45;8.63;;;;;;;22.08;55.62;98045.94;10315824;28;20057;-55
2023/09/05 09:52:04;;;;;;;10.88;8.13;;;;;;;22.17;55.01;98056.97;10321521;28;20124;-55
2023/09/05 09:57:05;;;;;;;9.70;8.25;;;;;;;22.25;55.38;98053.13;10321047;28;20065;-55
2023/09/05 10:02:11;;;;;;;9.43;8.20;;;;;;;22.11;55.67;98054.59;10321336;28;20116;-54
2023/09/05 10:07:14;;;;;;;9.25;7.50;;;;;;;22.07;56.16;98046.88;10321161;28;20060;-55
2023/09/05 10:12:20;;;;;;;9.75;7.90;;;;;;;22.34;54.27;97992.81;10331112;28;20072;-54
2023/09/05 10:17:21;;;;;;;11.90;8.48;;;;;;;22.53;53.43;98032.50;10320378;28;20064;-53
2023/09/05 10:22:21;;;;;;;11.68;7.35;;;;;;;22.37;52.72;98034.97;10321281;28;20125;-54
2023/09/05 10:27:20;;;;;;;9.52;6.85;;;;;;;22.25;51.41;98031.97;10318712;28;20125;-56
2023/09/05 10:32:23;;;;;;;10.20;6.80;;;;;;;22.30;52.37;98030.88;10320750;28;20108;-54
2023/09/05 10:37:26;;;;;;;8.50;6.60;;;;;;;22.49;51.99;98035.34;10318742;28;20468;-54
2023/09/05 10:42:31;;;;;;;8.73;6.30;;;;;;;22.50;51.38;98026.47;10321300;28;20897;-55
2023/09/05 10:47:35;;;;;;;6.47;5.60;;;;;;;22.11;51.21;98032.59;10321433;28;20057;-54
2023/09/05 10:52:34;;;;;;;7.43;6.05;;;;;;;21.92;50.36;98036.00;10320317;28;20959;-54
2023/09/05 10:57:39;;;;;;;7.10;5.72;;;;;;;21.52;51.69;98032.38;10320174;28;20128;-55
2023/09/05 11:02:40;;;;;;;7.40;6.00;;;;;;;21.45;52.40;98009.78;10320919;28;20080;-56
2023/09/05 11:07:43;;;;;;;10.50;6.05;;;;;;;21.89;51.09;98014.97;10320718;28;20060;-54
2023/09/05 11:12:42;;;;;;;8.70;5.40;;;;;;;21.65;50.54;97876.06;10320742;28;20559;-54
2023/09/05 11:17:42;;;;;;;8.25;5.50;;;;;;;22.71;50.24;98004.31;10320878;28;20537;-55
2023/09/05 11:22:41;;;;;;;8.50;5.50;;;;;;;22.84;48.88;97961.47;10319370;28;20889;-56
2023/09/05 11:27:40;;;;;;;7.50;5.20;;;;;;;22.73;47.65;97991.88;10323472;28;20124;-56
2023/09/05 11:32:42;;;;;;;8.77;5.43;;;;;;;22.65;48.21;97991.41;10325141;28;20120;-55
2023/09/05 11:37:41;;;;;;;10.20;9.00;;;;;;;23.00;47.34;97988.94;10320295;28;20485;-54
2023/09/05 11:42:40;;;;;;;8.18;5.32;;;;;;;23.17;46.67;97975.72;10321980;28;20582;-56
2023/09/05 11:47:40;;;;;;;11.27;9.02;;;;;;;23.33;46.47;97997.03;10323970;28;20061;-55
2023/09/05 11:52:40;;;;;;;10.75;5.50;;;;;;;23.39;46.44;97987.91;10325818;28;20053;-55
2023/09/05 11:57:40;;;;;;;8.82;5.07;;;;;;;23.38;45.14;97983.56;10325346;28;20080;-55
2023/09/05 12:02:39;;;;;;;8.48;5.60;;;;;;;23.62;46.13;97987.66;10323147;28;20532;-55
2023/09/05 12:07:38;;;;;;;7.95;5.43;;;;;;;23.38;45.61;97870.53;10326653;28;20107;-54
2023/09/05 12:12:37;;;;;;;9.15;5.30;;;;;;;24.37;45.12;97964.38;10324818;28;20053;-55
2023/09/05 12:17:36;;;;;;;9.65;5.25;;;;;;;24.61;44.35;97962.19;10328987;28;20073;-55
2023/09/05 12:22:35;;;;;;;6.97;5.15;;;;;;;24.70;43.93;97960.81;10325069;28;20037;-54
2023/09/05 12:27:38;;;;;;;7.88;5.28;;;;;;;24.82;43.65;97964.59;10327100;28;20096;-55
2023/09/05 12:32:37;;;;;;;9.43;5.90;;;;;;;24.75;43.12;97968.53;10327057;28;20065;-55
2023/09/05 12:37:36;;;;;;;9.82;5.38;;;;;;;24.63;43.54;97978.88;10327810;28;20068;-55
2023/09/05 12:42:35;;;;;;;16.80;12.93;;;;;;;24.58;44.28;97972.13;10325438;28;20029;-55
2023/09/05 12:47:34;;;;;;;8.20;5.60;;;;;;;24.24;44.87;97971.28;10324574;28;20838;-55
2023/09/05 12:52:33;;;;;;;7.82;5.55;;;;;;;24.08;44.72;97968.56;10323238;28;20507;-55
2023/09/05 12:57:32;;;;;;;6.30;5.18;;;;;;;23.80;44.97;97945.28;10323525;28;20480;-55
2023/09/05 13:02:31;;;;;;;7.28;5.20;;;;;;;23.88;46.18;97966.91;10323863;28;20043;-55
2023/09/05 13:07:30;;;;;;;7.43;5.10;;;;;;;23.89;46.38;97962.47;10323109;28;20480;-55
2023/09/05 13:12:29;;;;;;;6.57;5.13;;;;;;;24.04;45.66;97962.53;10321609;28;20057;-55
2023/09/05 13:17:28;;;;;;;10.00;5.18;;;;;;;24.20;45.44;97962.63;10323514;28;20094;-55
2023/09/05 13:22:27;;;;;;;9.73;5.60;;;;;;;24.33;45.45;97959.31;10322350;28;20077;-56
2023/09/05 13:27:26;;;;;;;8.40;5.32;;;;;;;24.46;45.50;97961.22;10322436;28;20025;-55
2023/09/05 13:32:25;;;;;;;8.63;5.47;;;;;;;24.32;45.22;97955.81;10319140;28;20037;-56
2023/09/05 13:37:24;;;;;;;6.40;4.80;;;;;;;24.08;45.80;97959.75;10321085;28;20041;-55
2023/09/05 13:42:23;;;;;;;11.98;5.78;;;;;;;23.95;45.91;97970.97;10323057;28;20116;-55
2023/09/05 13:47:22;;;;;;;12.57;6.00;;;;;;;24.18;46.08;97975.09;10319784;28;20135;-55
2023/09/05 13:52:21;;;;;;;10.90;5.18;;;;;;;24.36;46.39;97972.44;10323129;28;20022;-55
2023/09/05 13:57:22;;;;;;;7.82;5.07;;;;;;;24.39;46.13;97962.50;10319299;28;20145;-55
2023/09/05 14:02:21;;;;;;;8.15;5.03;;;;;;;24.16;45.59;97961.03;10281878;28;20125;-55
2023/09/05 14:07:20;;;;;;;131.98;14.30;;;;;;;23.96;46.22;97954.16;10282374;28;20017;-55
2023/09/05 14:12:19;;;;;;;10.20;5.38;;;;;;;23.68;46.94;97949.41;10284696;28;20022;-55
2023/09/05 14:17:18;;;;;;;5.68;4.53;;;;;;;23.37;46.69;97960.63;10277420;28;20033;-55
2023/09/05 14:22:17;;;;;;;7.65;5.18;;;;;;;23.30;47.54;97962.72;10279295;28;20548;-55
2023/09/05 14:27:16;;;;;;;10.25;5.93;;;;;;;22.89;48.21;97912.69;10275791;28;20945;-55
2023/09/05 14:32:15;;;;;;;8.65;5.00;;;;;;;23.12;48.70;97961.00;10282455;28;20108;-55
2023/09/05 14:37:14;;;;;;;11.18;5.20;;;;;;;23.05;49.25;97960.44;10282787;28;20120;-55
2023/09/05 14:42:13;;;;;;;15.05;6.88;;;;;;;23.00;48.88;97962.47;10280690;28;20121;-55
2023/09/05 14:47:12;;;;;;;10.27;6.85;;;;;;;22.95;49.63;97956.50;10280518;28;20117;-55
2023/09/05 14:52:11;;;;;;;8.13;5.75;;;;;;;23.01;49.58;97958.88;10277874;28;20022;-55
2023/09/05 14:57:10;;;;;;;11.45;6.30;;;;;;;22.98;49.77;97959.03;10284829;28;20121;-55
2023/09/05 15:02:09;;;;;;;8.70;5.82;;;;;;;23.01;49.48;97948.28;10327629;28;20022;-56
2023/09/05 15:07:08;;;;;;;11.80;6.68;;;;;;;23.07;49.70;97950.66;10327573;28;20112;-55
2023/09/05 15:12:08;;;;;;;17.60;12.70;;;;;;;23.19;49.22;97952.69;10326905;28;20072;-55
2023/09/05 15:17:07;;;;;;;10.23;5.90;;;;;;;23.22;49.33;97956.97;10325879;28;20069;-59
2023/09/05 15:22:06;;;;;;;7.28;5.70;;;;;;;23.07;49.42;97916.22;10328509;28;20043;-57
2023/09/05 15:27:05;;;;;;;8.75;5.78;;;;;;;23.22;49.27;97947.22;10328627;28;20037;-60
2023/09/05 15:32:04;;;;;;;311.27;223.82;;;;;;;23.41;49.20;97956.91;10328227;28;20101;-55
2023/09/05 15:37:03;;;;;;;82.13;56.85;;;;;;;22.87;48.99;97956.88;10327208;28;20653;-55
2023/09/05 15:42:02;;;;;;;14.13;8.82;;;;;;;22.72;49.58;97957.59;10328735;28;20455;-55
2023/09/05 15:47:01;;;;;;;138.25;101.55;;;;;;;22.65;49.67;97945.56;10325732;28;20069;-55
2023/09/05 15:52:03;;;;;;;112.72;80.03;;;;;;;22.74;49.96;97955.72;10325666;28;20009;-56
2023/09/05 15:57:02;;;;;;;21.65;12.55;;;;;;;22.84;49.89;97961.47;10326143;28;20095;-55
2023/09/05 16:02:01;;;;;;;47.85;33.33;;;;;;;22.80;49.40;97964.25;10326676;28;20025;-56
2023/09/05 16:07:00;;;;;;;19.08;11.27;;;;;;;22.82;49.84;97968.63;10323783;28;20393;-53
2023/09/05 16:11:59;;;;;;;10.48;6.50;;;;;;;22.79;49.84;97965.19;10327830;28;20080;-55
2023/09/05 16:16:58;;;;;;;13.95;5.88;;;;;;;22.77;50.02;97976.78;10325709;28;20539;-56
2023/09/05 16:21:57;;;;;;;10.30;5.97;;;;;;;22.80;49.53;97976.63;10326121;28;20480;-55
2023/09/05 16:26:58;;;;;;;9.98;5.50;;;;;;;22.78;50.40;97983.78;10326030;28;20038;-55
2023/09/05 16:32:00;;;;;;;12.85;6.50;;;;;;;22.70;51.62;97986.75;10324141;28;20058;-55
2023/09/05 16:36:59;;;;;;;12.52;7.15;;;;;;;22.34;52.08;97962.84;10322895;28;20065;-56
2023/09/05 16:42:00;;;;;;;10.68;6.22;;;;;;;22.35;53.04;97991.00;10324987;28;20045;-56
2023/09/05 16:46:59;;;;;;;15.30;8.23;;;;;;;22.29;54.09;98002.69;10326308;28;20073;-56
2023/09/05 16:51:58;;;;;;;13.13;7.72;;;;;;;21.84;54.71;97972.03;10328257;28;20057;-56
2023/09/05 16:56:57;;;;;;;10.82;7.35;;;;;;;22.04;55.55;98023.19;10325328;28;20072;-55
2023/09/05 17:01:56;;;;;;;12.18;7.32;;;;;;;21.94;56.30;98026.22;10326327;28;20037;-55
2023/09/05 17:06:55;;;;;;;25.90;15.60;;;;;;;21.68;56.96;98015.88;10327357;28;20116;-55
2023/09/05 17:11:54;;;;;;;11.02;7.60;;;;;;;21.59;57.53;98040.03;10326967;28;20017;-54
2023/09/05 17:16:53;;;;;;;14.60;7.20;;;;;;;21.40;58.66;98038.13;10327068;28;20373;-54
2023/09/05 17:21:52;;;;;;;13.70;7.55;;;;;;;21.47;61.08;98073.94;10325554;28;20048;-54
2023/09/05 17:26:51;;;;;;;12.60;7.20;;;;;;;21.41;62.75;98079.47;10367897;28;20056;-56
2023/09/05 17:31:52;;;;;;;14.05;7.70;;;;;;;21.20;62.95;98075.88;10364601;28;20112;-54
2023/09/05 17:36:51;;;;;;;14.32;8.35;;;;;;;21.15;65.40;98080.47;10365089;28;20079;-55
2023/09/05 17:41:50;;;;;;;15.45;8.05;;;;;;;21.09;65.58;98086.81;10327616;28;20033;-55
2023/09/05 17:46:49;;;;;;;13.25;8.15;;;;;;;21.00;66.04;98084.53;10322139;28;20547;-55
2023/09/05 17:51:48;;;;;;;13.40;8.85;;;;;;;20.91;67.32;98076.97;10322356;28;20045;-55
2023/09/05 17:56:47;;;;;;;12.52;8.25;;;;;;;20.89;68.20;98090.22;10321303;28;20116;-55
2023/09/05 18:01:46;;;;;;;11.85;7.68;;;;;;;20.86;68.67;98094.75;10322057;28;20037;-55
2023/09/05 18:06:46;;;;;;;12.90;8.75;;;;;;;20.79;68.87;98098.53;10322432;28;20076;-55
2023/09/05 18:11:45;;;;;;;12.23;8.30;;;;;;;20.70;69.50;98105.00;10321794;28;20061;-55
2023/09/05 18:16:45;;;;;;;10.90;7.63;;;;;;;20.52;69.59;98103.91;10322311;28;20021;-55
2023/09/05 18:21:44;;;;;;;13.10;7.18;;;;;;;20.50;70.19;98111.84;10319584;28;20188;-55
2023/09/05 18:26:43;;;;;;;11.52;7.60;;;;;;;20.33;70.38;98102.78;10321363;28;20129;-54
2023/09/05 18:31:42;;;;;;;11.35;6.97;;;;;;;20.33;70.85;98119.47;10326237;28;20033;-55
2023/09/05 18:36:41;;;;;;;15.45;8.07;;;;;;;20.27;71.08;98125.78;10329845;28;20044;-55
2023/09/05 18:41:40;;;;;;;12.27;7.55;;;;;;;19.34;69.73;97986.69;10329478;28;20053;-54
2023/09/05 18:46:38;;;;;;;12.45;6.60;;;;;;;20.11;69.85;98121.97;10329592;28;20462;-55
2023/09/05 18:51:37;;;;;;;18.85;10.02;;;;;;;20.07;71.20;98120.31;10330842;28;20411;-55
2023/09/05 18:56:36;;;;;;;12.90;7.88;;;;;;;20.03;71.86;98121.38;10328989;28;20120;-54
2023/09/05 19:01:35;;;;;;;10.60;6.90;;;;;;;20.00;72.43;98124.06;10328976;28;20049;-54
2023/09/05 19:06:34;;;;;;;10.25;6.85;;;;;;;19.93;72.84;98120.81;10328848;28;20120;-55
2023/09/05 19:11:33;;;;;;;9.68;6.40;;;;;;;19.86;73.54;98124.53;10327059;28;20133;-55
2023/09/05 19:16:32;;;;;;;13.85;6.45;;;;;;;19.82;73.76;98133.47;10369513;28;20035;-55
2023/09/05 19:21:33;;;;;;;11.38;7.40;;;;;;;19.78;73.78;98132.69;10369028;28;20032;-55
2023/09/05 19:26:32;;;;;;;8.82;6.70;;;;;;;19.65;74.80;98139.28;10368656;28;20075;-55
2023/09/05 19:31:31;;;;;;;12.98;7.75;;;;;;;19.69;74.84;98155.81;10339537;28;20030;-55
2023/09/05 19:36:30;;;;;;;11.52;7.18;;;;;;;19.70;75.46;98163.69;10327362;28;20105;-55
2023/09/05 19:41:29;;;;;;;12.93;7.30;;;;;;;19.73;75.46;98168.84;10328146;28;20116;-54
2023/09/05 19:46:28;;;;;;;8.20;6.88;;;;;;;19.74;75.43;98173.19;10329300;28;20044;-55
2023/09/05 19:51:27;;;;;;;11.75;7.28;;;;;;;19.72;75.74;98179.41;10328914;28;20037;-55
2023/09/05 19:56:26;;;;;;;12.60;7.90;;;;;;;19.72;75.79;98180.31;10330312;28;20040;-53
2023/09/05 20:01:25;;;;;;;13.65;7.35;;;;;;;19.74;75.75;98181.09;10327805;28;20440;-53
2023/09/05 20:06:24;;;;;;;14.38;7.93;;;;;;;19.71;75.92;98202.25;10334897;28;20125;-54
2023/09/05 20:11:22;;;;;;;16.95;8.20;;;;;;;19.67;76.48;98213.78;10353533;28;20073;-55
2023/09/05 20:16:21;;;;;;;10.32;7.57;;;;;;;19.62;76.18;98218.34;10317611;28;20109;-55
2023/09/05 20:21:20;;;;;;;10.00;6.75;;;;;;;19.55;76.22;98222.88;10342090;28;20113;-55
2023/09/05 20:26:19;;;;;;;10.05;7.05;;;;;;;19.51;77.15;98228.28;10330910;28;20073;-55
2023/09/05 20:31:18;;;;;;;13.30;7.45;;;;;;;19.44;77.81;98217.94;10331907;28;20029;-55
2023/09/05 20:36:17;;;;;;;8.90;7.28;;;;;;;19.36;78.32;98227.81;10331720;28;20596;-56
2023/09/05 20:41:18;;;;;;;9.85;7.50;;;;;;;19.26;79.17;98234.28;10328926;28;20957;-55
2023/09/05 20:46:17;;;;;;;7.88;6.97;;;;;;;19.09;79.49;98218.06;10327345;28;20091;-55
2023/09/05 20:51:16;;;;;;;14.82;7.78;;;;;;;19.27;80.53;98246.50;10327201;28;20060;-56
2023/09/05 20:56:16;;;;;;;11.43;7.60;;;;;;;19.21;79.95;98251.97;10319514;28;20088;-55
2023/09/05 21:01:16;;;;;;;10.85;7.75;;;;;;;19.09;81.05;98239.13;10340137;28;20505;-56
2023/09/05 21:06:18;;;;;;;10.50;7.65;;;;;;;19.03;80.46;98271.72;10327485;28;20073;-54
2023/09/05 21:11:19;;;;;;;11.55;8.63;;;;;;;18.93;81.15;98263.22;10330229;28;20064;-55
2023/09/05 21:16:18;;;;;;;10.65;8.65;;;;;;;18.58;81.85;98206.28;10337945;28;20076;-55
2023/09/05 21:21:17;;;;;;;11.27;8.77;;;;;;;18.89;82.47;98266.84;10324227;28;20048;-55
2023/09/05 21:26:16;;;;;;;13.98;10.32;;;;;;;18.77;82.66;98259.28;10325805;28;20045;-55
2023/09/05 21:31:16;;;;;;;12.05;9.32;;;;;;;18.66;83.41;98256.03;10347720;28;20100;-55
2023/09/05 21:36:15;;;;;;;16.23;12.02;;;;;;;18.61;83.62;98235.97;10347548;28;20065;-55
2023/09/05 21:41:14;;;;;;;19.98;11.63;;;;;;;18.65;84.10;98234.13;10361962;28;20119;-55
2023/09/05 21:46:14;;;;;;;11.73;9.45;;;;;;;18.60;84.48;98242.13;10350966;28;20041;-55
2023/09/05 21:51:13;;;;;;;12.13;9.85;;;;;;;18.30;85.97;98232.41;10311541;28;20068;-55
2023/09/05 21:56:12;;;;;;;19.95;9.48;;;;;;;18.00;88.60;98239.25;10323565;28;20040;-54
2023/09/05 22:01:11;;;;;;;15.75;11.90;;;;;;;17.95;88.45;98231.47;10343239;28;20083;-54
2023/09/05 22:06:12;;;;;;;15.52;11.40;;;;;;;17.89;89.78;98236.84;10327947;28;20037;-55
2023/09/05 22:11:11;;;;;;;15.15;10.98;;;;;;;17.86;89.62;98237.78;10323424;28;20758;-54
2023/09/05 22:16:10;;;;;;;11.50;9.23;;;;;;;17.63;90.60;98230.38;10331342;28;20468;-54
2023/09/05 22:21:11;;;;;;;13.60;9.70;;;;;;;17.55;91.22;98233.19;10332305;28;20607;-54
2023/09/05 22:26:10;;;;;;;16.23;11.02;;;;;;;17.63;90.69;98229.53;10364360;28;20728;-55
2023/09/05 22:31:09;;;;;;;13.13;8.88;;;;;;;17.53;90.91;98228.88;10364682;28;20556;-55
2023/09/05 22:36:08;;;;;;;14.02;9.70;;;;;;;17.54;91.09;98233.19;10315472;28;20088;-54
2023/09/05 22:41:07;;;;;;;12.73;10.20;;;;;;;17.70;90.22;98242.47;10325764;28;20084;-55
2023/09/05 22:46:05;;;;;;;17.77;11.10;;;;;;;17.80;89.85;98234.44;10333639;28;20029;-55
2023/09/05 22:51:05;;;;;;;17.35;11.25;;;;;;;17.87;89.19;98244.78;10358960;28;20104;-55
2023/09/05 22:56:12;;;;;;;12.57;9.95;;;;;;;17.91;88.92;98240.31;10323450;28;20068;-54